sensor_id;sensor_type;location;lat;lon;timestamp;temperature;humidity
7427;DHT22;3755;59.316;18.092;2024-03-02T00:00:27;3.90;99.90
7427;DHT22;3755;59.316;18.092;2024-03-02T00:02:54;3.90;99.90
7427;DHT22;3755;59.316;18.092;2024-03-02T00:05:22;3.90;99.90
7427;DHT22;3755;59.316;18.092;2024-03-02T00:07:53;3.90;99.90
7427;DHT22;3755;59.316;18.092;2024-03-02T00:10:22;3.90;99.90
7427;DHT22;3755;59.316;18.092;2024-03-02T00:12:56;3.90;99.90
7427;DHT22;3755;59.316;18.092;2024-03-02T00:15:41;3.90;99.90
7427;DHT22;3755;59.316;18.092;2024-03-02T00:18:11;3.90;99.90
7427;DHT22;3755;59.316;18.092;2024-03-02T00:20:38;3.90;99.90
7427;DHT22;3755;59.316;18.092;2024-03-02T00:23:07;3.80;99.90
7427;DHT22;3755;59.316;18.092;2024-03-02T00:25:44;3.80;99.90
7427;DHT22;3755;59.316;18.092;2024-03-02T00:28:20;3.80;99.90
7427;DHT22;3755;59.316;18.092;2024-03-02T00:30:54;3.70;99.90
7427;DHT22;3755;59.316;18.092;2024-03-02T00:33:22;3.70;99.90
7427;DHT22;3755;59.316;18.092;2024-03-02T00:35:50;3.70;99.90
7427;DHT22;3755;59.316;18.092;2024-03-02T00:38:17;3.70;99.90
7427;DHT22;3755;59.316;18.092;2024-03-02T00:40:45;3.60;99.90
7427;DHT22;3755;59.316;18.092;2024-03-02T00:43:32;3.70;99.90
7427;DHT22;3755;59.316;18.092;2024-03-02T00:46:04;3.60;99.90
7427;DHT22;3755;59.316;18.092;2024-03-02T00:48:31;3.60;99.90
7427;DHT22;3755;59.316;18.092;2024-03-02T00:51:01;3.60;99.90
7427;DHT22;3755;59.316;18.092;2024-03-02T00:53:30;3.50;99.90
7427;DHT22;3755;59.316;18.092;2024-03-02T00:55:58;3.60;99.90
7427;DHT22;3755;59.316;18.092;2024-03-02T00:58:25;3.50;99.90
7427;DHT22;3755;59.316;18.092;2024-03-02T01:00:53;3.50;99.90
7427;DHT22;3755;59.316;18.092;2024-03-02T01:03:21;3.60;99.90
7427;DHT22;3755;59.316;18.092;2024-03-02T01:05:48;3.50;99.90
7427;DHT22;3755;59.316;18.092;2024-03-02T01:08:15;3.60;99.90
7427;DHT22;3755;59.316;18.092;2024-03-02T01:10:42;3.50;99.90
7427;DHT22;3755;59.316;18.092;2024-03-02T01:13:09;3.50;99.90
7427;DHT22;3755;59.316;18.092;2024-03-02T01:15:36;3.50;99.90
7427;DHT22;3755;59.316;18.092;2024-03-02T01:18:05;3.50;99.90
7427;DHT22;3755;59.316;18.092;2024-03-02T01:20:32;3.50;99.90
7427;DHT22;3755;59.316;18.092;2024-03-02T01:22:59;3.50;99.90
7427;DHT22;3755;59.316;18.092;2024-03-02T01:25:26;3.50;99.90
7427;DHT22;3755;59.316;18.092;2024-03-02T01:27:53;3.50;99.90
7427;DHT22;3755;59.316;18.092;2024-03-02T01:30:20;3.40;99.90
7427;DHT22;3755;59.316;18.092;2024-03-02T01:32:47;3.50;99.90
7427;DHT22;3755;59.316;18.092;2024-03-02T01:35:16;3.40;99.90
7427;DHT22;3755;59.316;18.092;2024-03-02T01:37:43;3.50;99.90
7427;DHT22;3755;59.316;18.092;2024-03-02T01:40:11;3.40;99.90
7427;DHT22;3755;59.316;18.092;2024-03-02T01:42:38;3.40;99.90
7427;DHT22;3755;59.316;18.092;2024-03-02T01:45:06;3.40;99.90
7427;DHT22;3755;59.316;18.092;2024-03-02T01:47:34;3.40;99.90
7427;DHT22;3755;59.316;18.092;2024-03-02T01:50:01;3.50;99.90
7427;DHT22;3755;59.316;18.092;2024-03-02T01:52:30;3.40;99.90
7427;DHT22;3755;59.316;18.092;2024-03-02T01:54:57;3.40;99.90
7427;DHT22;3755;59.316;18.092;2024-03-02T01:57:24;3.40;99.90
7427;DHT22;3755;59.316;18.092;2024-03-02T01:59:51;3.40;99.90
7427;DHT22;3755;59.316;18.092;2024-03-02T02:02:18;3.40;99.90
7427;DHT22;3755;59.316;18.092;2024-03-02T02:04:46;3.40;99.90
7427;DHT22;3755;59.316;18.092;2024-03-02T02:07:13;3.40;99.90
7427;DHT22;3755;59.316;18.092;2024-03-02T02:09:42;3.40;99.90
7427;DHT22;3755;59.316;18.092;2024-03-02T02:12:10;3.40;99.90
7427;DHT22;3755;59.316;18.092;2024-03-02T02:14:37;3.40;99.90
7427;DHT22;3755;59.316;18.092;2024-03-02T02:17:05;3.40;99.90
7427;DHT22;3755;59.316;18.092;2024-03-02T02:19:32;3.40;99.90
7427;DHT22;3755;59.316;18.092;2024-03-02T02:22:01;3.40;99.90
7427;DHT22;3755;59.316;18.092;2024-03-02T02:24:28;3.40;99.90
7427;DHT22;3755;59.316;18.092;2024-03-02T02:26:55;3.40;99.90
7427;DHT22;3755;59.316;18.092;2024-03-02T02:29:22;3.40;99.90
7427;DHT22;3755;59.316;18.092;2024-03-02T02:31:49;3.40;99.90
7427;DHT22;3755;59.316;18.092;2024-03-02T02:34:16;3.40;99.90
7427;DHT22;3755;59.316;18.092;2024-03-02T02:36:44;3.40;99.90
7427;DHT22;3755;59.316;18.092;2024-03-02T02:39:15;3.30;99.90
7427;DHT22;3755;59.316;18.092;2024-03-02T02:41:42;3.30;99.90
7427;DHT22;3755;59.316;18.092;2024-03-02T02:44:09;3.30;99.90
7427;DHT22;3755;59.316;18.092;2024-03-02T02:46:38;3.30;99.90
7427;DHT22;3755;59.316;18.092;2024-03-02T02:49:05;3.30;99.90
7427;DHT22;3755;59.316;18.092;2024-03-02T02:51:32;3.30;99.90
7427;DHT22;3755;59.316;18.092;2024-03-02T02:53:59;3.30;99.90
7427;DHT22;3755;59.316;18.092;2024-03-02T02:56:28;3.30;99.90
7427;DHT22;3755;59.316;18.092;2024-03-02T02:58:55;3.30;99.90
7427;DHT22;3755;59.316;18.092;2024-03-02T03:01:22;3.30;99.90
7427;DHT22;3755;59.316;18.092;2024-03-02T03:03:49;3.30;99.90
7427;DHT22;3755;59.316;18.092;2024-03-02T03:06:16;3.30;99.90
7427;DHT22;3755;59.316;18.092;2024-03-02T03:08:43;3.30;99.90
7427;DHT22;3755;59.316;18.092;2024-03-02T03:11:10;3.20;99.90
7427;DHT22;3755;59.316;18.092;2024-03-02T03:13:38;3.20;99.90
7427;DHT22;3755;59.316;18.092;2024-03-02T03:16:06;3.20;99.90
7427;DHT22;3755;59.316;18.092;2024-03-02T03:18:33;3.20;99.90
7427;DHT22;3755;59.316;18.092;2024-03-02T03:21:00;3.20;99.90
7427;DHT22;3755;59.316;18.092;2024-03-02T03:23:27;3.20;99.90
7427;DHT22;3755;59.316;18.092;2024-03-02T03:25:54;3.20;99.90
7427;DHT22;3755;59.316;18.092;2024-03-02T03:28:21;3.20;99.90
7427;DHT22;3755;59.316;18.092;2024-03-02T03:30:49;3.20;99.90
7427;DHT22;3755;59.316;18.092;2024-03-02T03:33:16;3.20;99.90
7427;DHT22;3755;59.316;18.092;2024-03-02T03:35:43;3.20;99.90
7427;DHT22;3755;59.316;18.092;2024-03-02T03:38:10;3.20;99.90
7427;DHT22;3755;59.316;18.092;2024-03-02T03:40:37;3.20;99.90
7427;DHT22;3755;59.316;18.092;2024-03-02T03:43:04;3.20;99.90
7427;DHT22;3755;59.316;18.092;2024-03-02T03:45:31;3.20;99.90
7427;DHT22;3755;59.316;18.092;2024-03-02T03:48:00;3.20;99.90
7427;DHT22;3755;59.316;18.092;2024-03-02T03:50:27;3.10;99.90
7427;DHT22;3755;59.316;18.092;2024-03-02T03:52:54;3.10;99.90
7427;DHT22;3755;59.316;18.092;2024-03-02T03:55:21;3.10;99.90
7427;DHT22;3755;59.316;18.092;2024-03-02T03:57:48;3.00;99.90
7427;DHT22;3755;59.316;18.092;2024-03-02T04:00:15;3.10;99.90
7427;DHT22;3755;59.316;18.092;2024-03-02T04:02:42;3.00;99.90
7427;DHT22;3755;59.316;18.092;2024-03-02T04:05:10;3.00;99.90
7427;DHT22;3755;59.316;18.092;2024-03-02T04:07:37;3.00;99.90
7427;DHT22;3755;59.316;18.092;2024-03-02T04:10:07;3.00;99.90
7427;DHT22;3755;59.316;18.092;2024-03-02T04:12:35;3.00;99.90
7427;DHT22;3755;59.316;18.092;2024-03-02T04:15:03;3.00;99.90
7427;DHT22;3755;59.316;18.092;2024-03-02T04:17:32;3.00;99.90
7427;DHT22;3755;59.316;18.092;2024-03-02T04:19:59;3.00;99.90
7427;DHT22;3755;59.316;18.092;2024-03-02T04:22:28;2.90;99.90
7427;DHT22;3755;59.316;18.092;2024-03-02T04:24:55;2.90;99.90
7427;DHT22;3755;59.316;18.092;2024-03-02T04:27:22;2.90;99.90
7427;DHT22;3755;59.316;18.092;2024-03-02T04:29:49;2.90;99.90
7427;DHT22;3755;59.316;18.092;2024-03-02T04:32:16;2.80;99.90
7427;DHT22;3755;59.316;18.092;2024-03-02T04:34:45;2.80;99.90
7427;DHT22;3755;59.316;18.092;2024-03-02T04:37:12;2.80;99.90
7427;DHT22;3755;59.316;18.092;2024-03-02T04:39:41;2.80;99.90
7427;DHT22;3755;59.316;18.092;2024-03-02T04:42:08;2.70;99.90
7427;DHT22;3755;59.316;18.092;2024-03-02T04:44:35;2.80;99.90
7427;DHT22;3755;59.316;18.092;2024-03-02T04:47:03;2.70;99.90
7427;DHT22;3755;59.316;18.092;2024-03-02T04:49:30;2.80;99.90
7427;DHT22;3755;59.316;18.092;2024-03-02T04:51:57;2.80;99.90
7427;DHT22;3755;59.316;18.092;2024-03-02T04:54:25;2.80;99.90
7427;DHT22;3755;59.316;18.092;2024-03-02T04:56:53;2.80;99.90
7427;DHT22;3755;59.316;18.092;2024-03-02T04:59:20;2.80;99.90
7427;DHT22;3755;59.316;18.092;2024-03-02T05:01:47;2.80;99.90
7427;DHT22;3755;59.316;18.092;2024-03-02T05:04:15;2.90;99.90
7427;DHT22;3755;59.316;18.092;2024-03-02T05:06:42;2.80;99.90
7427;DHT22;3755;59.316;18.092;2024-03-02T05:09:09;2.80;99.90
7427;DHT22;3755;59.316;18.092;2024-03-02T05:11:36;2.80;99.90
7427;DHT22;3755;59.316;18.092;2024-03-02T05:14:36;2.80;99.90
7427;DHT22;3755;59.316;18.092;2024-03-02T05:17:04;2.80;99.90
7427;DHT22;3755;59.316;18.092;2024-03-02T05:19:31;2.90;99.90
7427;DHT22;3755;59.316;18.092;2024-03-02T05:21:58;2.90;99.90
7427;DHT22;3755;59.316;18.092;2024-03-02T05:24:25;2.90;99.90
7427;DHT22;3755;59.316;18.092;2024-03-02T05:26:54;2.90;99.90
7427;DHT22;3755;59.316;18.092;2024-03-02T05:29:21;2.90;99.90
7427;DHT22;3755;59.316;18.092;2024-03-02T05:31:49;2.90;99.90
7427;DHT22;3755;59.316;18.092;2024-03-02T05:34:16;2.90;99.90
7427;DHT22;3755;59.316;18.092;2024-03-02T05:36:44;2.90;99.90
7427;DHT22;3755;59.316;18.092;2024-03-02T05:39:11;2.90;99.90
7427;DHT22;3755;59.316;18.092;2024-03-02T05:41:38;2.90;99.90
7427;DHT22;3755;59.316;18.092;2024-03-02T05:44:05;2.90;99.90
7427;DHT22;3755;59.316;18.092;2024-03-02T05:46:32;2.90;99.90
7427;DHT22;3755;59.316;18.092;2024-03-02T05:49:00;2.90;99.90
7427;DHT22;3755;59.316;18.092;2024-03-02T05:51:27;2.90;99.90
7427;DHT22;3755;59.316;18.092;2024-03-02T05:53:54;2.90;99.90
7427;DHT22;3755;59.316;18.092;2024-03-02T05:56:21;2.90;99.90
7427;DHT22;3755;59.316;18.092;2024-03-02T05:58:48;3.00;99.90
7427;DHT22;3755;59.316;18.092;2024-03-02T06:01:26;3.00;99.90
7427;DHT22;3755;59.316;18.092;2024-03-02T06:03:56;3.00;99.90
7427;DHT22;3755;59.316;18.092;2024-03-02T06:06:25;3.00;99.90
7427;DHT22;3755;59.316;18.092;2024-03-02T06:08:52;3.10;99.90
7427;DHT22;3755;59.316;18.092;2024-03-02T06:11:19;3.10;99.90
7427;DHT22;3755;59.316;18.092;2024-03-02T06:13:47;3.20;99.90
7427;DHT22;3755;59.316;18.092;2024-03-02T06:16:14;3.20;99.90
7427;DHT22;3755;59.316;18.092;2024-03-02T06:18:40;3.30;99.90
7427;DHT22;3755;59.316;18.092;2024-03-02T06:21:07;3.30;99.90
7427;DHT22;3755;59.316;18.092;2024-03-02T06:23:36;3.40;99.90
7427;DHT22;3755;59.316;18.092;2024-03-02T06:26:03;3.40;99.90
7427;DHT22;3755;59.316;18.092;2024-03-02T06:28:30;3.40;99.90
7427;DHT22;3755;59.316;18.092;2024-03-02T06:30:57;3.50;99.90
7427;DHT22;3755;59.316;18.092;2024-03-02T06:33:24;3.50;99.90
7427;DHT22;3755;59.316;18.092;2024-03-02T06:35:51;3.50;99.90
7427;DHT22;3755;59.316;18.092;2024-03-02T06:38:18;3.60;99.90
7427;DHT22;3755;59.316;18.092;2024-03-02T06:40:47;3.60;99.90
7427;DHT22;3755;59.316;18.092;2024-03-02T06:43:14;3.60;99.90
7427;DHT22;3755;59.316;18.092;2024-03-02T06:45:41;3.70;99.90
7427;DHT22;3755;59.316;18.092;2024-03-02T06:48:08;3.70;99.90
7427;DHT22;3755;59.316;18.092;2024-03-02T06:50:35;3.80;99.90
7427;DHT22;3755;59.316;18.092;2024-03-02T06:53:02;3.80;99.90
7427;DHT22;3755;59.316;18.092;2024-03-02T06:55:30;3.80;99.90
7427;DHT22;3755;59.316;18.092;2024-03-02T06:57:58;3.90;99.90
7427;DHT22;3755;59.316;18.092;2024-03-02T07:00:25;4.00;99.90
7427;DHT22;3755;59.316;18.092;2024-03-02T07:02:52;4.20;99.90
7427;DHT22;3755;59.316;18.092;2024-03-02T07:05:19;4.00;99.90
7427;DHT22;3755;59.316;18.092;2024-03-02T07:07:46;4.00;99.90
7427;DHT22;3755;59.316;18.092;2024-03-02T07:10:14;4.10;99.90
7427;DHT22;3755;59.316;18.092;2024-03-02T07:12:41;4.10;99.90
7427;DHT22;3755;59.316;18.092;2024-03-02T07:15:12;4.20;99.90
7427;DHT22;3755;59.316;18.092;2024-03-02T07:17:55;4.20;99.90
7427;DHT22;3755;59.316;18.092;2024-03-02T07:20:22;4.20;99.90
7427;DHT22;3755;59.316;18.092;2024-03-02T07:22:49;4.30;99.90
7427;DHT22;3755;59.316;18.092;2024-03-02T07:25:18;4.30;99.90
7427;DHT22;3755;59.316;18.092;2024-03-02T07:27:45;4.40;99.90
7427;DHT22;3755;59.316;18.092;2024-03-02T07:30:15;4.40;99.90
7427;DHT22;3755;59.316;18.092;2024-03-02T07:32:43;4.40;99.90
7427;DHT22;3755;59.316;18.092;2024-03-02T07:35:12;4.40;99.90
7427;DHT22;3755;59.316;18.092;2024-03-02T07:37:40;4.40;99.90
7427;DHT22;3755;59.316;18.092;2024-03-02T07:40:09;4.50;99.90
7427;DHT22;3755;59.316;18.092;2024-03-02T07:42:38;4.50;99.90
7427;DHT22;3755;59.316;18.092;2024-03-02T07:45:06;4.50;99.90
7427;DHT22;3755;59.316;18.092;2024-03-02T07:47:35;4.60;99.90
7427;DHT22;3755;59.316;18.092;2024-03-02T07:50:02;4.70;99.90
7427;DHT22;3755;59.316;18.092;2024-03-02T07:52:31;4.70;99.90
7427;DHT22;3755;59.316;18.092;2024-03-02T07:54:59;4.70;99.90
7427;DHT22;3755;59.316;18.092;2024-03-02T07:57:26;4.70;99.90
7427;DHT22;3755;59.316;18.092;2024-03-02T07:59:53;4.80;99.90
7427;DHT22;3755;59.316;18.092;2024-03-02T08:02:20;4.80;99.90
7427;DHT22;3755;59.316;18.092;2024-03-02T08:04:49;4.80;99.90
7427;DHT22;3755;59.316;18.092;2024-03-02T08:07:16;4.90;99.90
7427;DHT22;3755;59.316;18.092;2024-03-02T08:09:43;4.90;99.90
7427;DHT22;3755;59.316;18.092;2024-03-02T08:12:11;5.00;99.90
7427;DHT22;3755;59.316;18.092;2024-03-02T08:14:38;5.00;99.90
7427;DHT22;3755;59.316;18.092;2024-03-02T08:17:06;5.00;99.90
7427;DHT22;3755;59.316;18.092;2024-03-02T08:19:35;5.10;99.90
7427;DHT22;3755;59.316;18.092;2024-03-02T08:22:04;5.10;99.90
7427;DHT22;3755;59.316;18.092;2024-03-02T08:24:32;5.10;99.90
7427;DHT22;3755;59.316;18.092;2024-03-02T08:27:00;5.10;99.90
7427;DHT22;3755;59.316;18.092;2024-03-02T08:29:27;5.10;99.90
7427;DHT22;3755;59.316;18.092;2024-03-02T08:31:54;5.10;99.90
7427;DHT22;3755;59.316;18.092;2024-03-02T08:34:20;5.10;99.90
7427;DHT22;3755;59.316;18.092;2024-03-02T08:36:47;5.10;99.90
7427;DHT22;3755;59.316;18.092;2024-03-02T08:39:16;5.10;99.90
7427;DHT22;3755;59.316;18.092;2024-03-02T08:41:46;5.10;99.90
7427;DHT22;3755;59.316;18.092;2024-03-02T08:44:13;5.10;99.90
7427;DHT22;3755;59.316;18.092;2024-03-02T08:46:40;5.10;99.90
7427;DHT22;3755;59.316;18.092;2024-03-02T08:49:07;5.10;99.90
7427;DHT22;3755;59.316;18.092;2024-03-02T08:51:35;5.10;99.90
7427;DHT22;3755;59.316;18.092;2024-03-02T08:54:02;5.10;99.90
7427;DHT22;3755;59.316;18.092;2024-03-02T08:56:31;5.10;99.90
7427;DHT22;3755;59.316;18.092;2024-03-02T08:58:58;5.10;99.90
7427;DHT22;3755;59.316;18.092;2024-03-02T09:01:25;5.10;99.90
7427;DHT22;3755;59.316;18.092;2024-03-02T09:03:53;5.20;99.90
7427;DHT22;3755;59.316;18.092;2024-03-02T09:06:20;5.20;99.90
7427;DHT22;3755;59.316;18.092;2024-03-02T09:08:47;5.20;99.90
7427;DHT22;3755;59.316;18.092;2024-03-02T09:11:17;5.30;99.90
7427;DHT22;3755;59.316;18.092;2024-03-02T09:13:46;5.30;99.90
7427;DHT22;3755;59.316;18.092;2024-03-02T09:16:14;5.40;99.90
7427;DHT22;3755;59.316;18.092;2024-03-02T09:18:41;5.40;99.90
7427;DHT22;3755;59.316;18.092;2024-03-02T09:21:08;5.40;99.90
7427;DHT22;3755;59.316;18.092;2024-03-02T09:23:35;5.50;99.90
7427;DHT22;3755;59.316;18.092;2024-03-02T09:26:04;5.50;99.90
7427;DHT22;3755;59.316;18.092;2024-03-02T09:28:31;5.60;99.90
7427;DHT22;3755;59.316;18.092;2024-03-02T09:31:00;5.70;99.90
7427;DHT22;3755;59.316;18.092;2024-03-02T09:33:27;5.70;99.90
7427;DHT22;3755;59.316;18.092;2024-03-02T09:35:55;5.80;99.90
7427;DHT22;3755;59.316;18.092;2024-03-02T09:38:22;5.90;99.90
7427;DHT22;3755;59.316;18.092;2024-03-02T09:40:49;6.00;99.90
7427;DHT22;3755;59.316;18.092;2024-03-02T09:43:19;6.10;99.90
7427;DHT22;3755;59.316;18.092;2024-03-02T09:45:46;6.10;99.90
7427;DHT22;3755;59.316;18.092;2024-03-02T09:48:16;6.20;99.90
7427;DHT22;3755;59.316;18.092;2024-03-02T09:50:44;6.20;99.90
7427;DHT22;3755;59.316;18.092;2024-03-02T09:53:12;6.20;99.90
7427;DHT22;3755;59.316;18.092;2024-03-02T09:55:40;6.30;99.90
7427;DHT22;3755;59.316;18.092;2024-03-02T09:58:09;6.30;99.90
7427;DHT22;3755;59.316;18.092;2024-03-02T10:00:37;6.20;99.90
7427;DHT22;3755;59.316;18.092;2024-03-02T10:03:05;6.30;99.90
7427;DHT22;3755;59.316;18.092;2024-03-02T10:05:34;6.20;99.90
7427;DHT22;3755;59.316;18.092;2024-03-02T10:08:01;6.20;99.90
7427;DHT22;3755;59.316;18.092;2024-03-02T10:10:36;6.20;99.90
7427;DHT22;3755;59.316;18.092;2024-03-02T10:13:06;6.20;99.90
7427;DHT22;3755;59.316;18.092;2024-03-02T10:15:34;6.10;99.90
7427;DHT22;3755;59.316;18.092;2024-03-02T10:18:03;6.20;99.90
7427;DHT22;3755;59.316;18.092;2024-03-02T10:20:30;6.10;99.90
7427;DHT22;3755;59.316;18.092;2024-03-02T10:23:10;6.20;99.90
7427;DHT22;3755;59.316;18.092;2024-03-02T10:25:38;6.10;99.90
7427;DHT22;3755;59.316;18.092;2024-03-02T10:28:05;6.10;99.90
7427;DHT22;3755;59.316;18.092;2024-03-02T10:30:33;6.00;99.90
7427;DHT22;3755;59.316;18.092;2024-03-02T10:33:01;6.00;99.90
7427;DHT22;3755;59.316;18.092;2024-03-02T10:35:29;6.00;99.90
7427;DHT22;3755;59.316;18.092;2024-03-02T10:37:58;6.00;99.90
7427;DHT22;3755;59.316;18.092;2024-03-02T10:40:28;5.90;99.90
7427;DHT22;3755;59.316;18.092;2024-03-02T10:42:56;5.90;99.90
7427;DHT22;3755;59.316;18.092;2024-03-02T10:45:23;6.00;99.90
7427;DHT22;3755;59.316;18.092;2024-03-02T10:47:51;6.00;99.90
7427;DHT22;3755;59.316;18.092;2024-03-02T10:50:21;6.10;99.90
7427;DHT22;3755;59.316;18.092;2024-03-02T10:52:48;6.10;99.90
7427;DHT22;3755;59.316;18.092;2024-03-02T10:55:16;6.10;99.90
7427;DHT22;3755;59.316;18.092;2024-03-02T10:57:51;6.00;99.90
7427;DHT22;3755;59.316;18.092;2024-03-02T11:00:19;6.00;99.90
7427;DHT22;3755;59.316;18.092;2024-03-02T11:02:51;6.00;99.90
7427;DHT22;3755;59.316;18.092;2024-03-02T11:05:26;6.00;99.90
7427;DHT22;3755;59.316;18.092;2024-03-02T11:07:57;6.10;99.90
7427;DHT22;3755;59.316;18.092;2024-03-02T11:10:25;6.20;99.90
7427;DHT22;3755;59.316;18.092;2024-03-02T11:12:59;6.20;99.90
7427;DHT22;3755;59.316;18.092;2024-03-02T11:15:27;6.20;99.90
7427;DHT22;3755;59.316;18.092;2024-03-02T11:17:55;6.20;99.90
7427;DHT22;3755;59.316;18.092;2024-03-02T11:20:23;6.10;99.90
7427;DHT22;3755;59.316;18.092;2024-03-02T11:22:51;6.10;99.90
7427;DHT22;3755;59.316;18.092;2024-03-02T11:25:25;6.00;99.90
7427;DHT22;3755;59.316;18.092;2024-03-02T11:28:06;6.00;99.90
7427;DHT22;3755;59.316;18.092;2024-03-02T11:30:51;6.10;99.90
7427;DHT22;3755;59.316;18.092;2024-03-02T11:33:25;6.20;99.90
7427;DHT22;3755;59.316;18.092;2024-03-02T11:35:56;6.20;99.90
7427;DHT22;3755;59.316;18.092;2024-03-02T11:38:33;6.10;99.90
7427;DHT22;3755;59.316;18.092;2024-03-02T11:41:01;6.10;99.90
7427;DHT22;3755;59.316;18.092;2024-03-02T11:43:38;6.10;99.90
7427;DHT22;3755;59.316;18.092;2024-03-02T11:46:06;6.10;99.90
7427;DHT22;3755;59.316;18.092;2024-03-02T11:48:35;6.10;99.90
7427;DHT22;3755;59.316;18.092;2024-03-02T11:51:03;6.10;99.90
7427;DHT22;3755;59.316;18.092;2024-03-02T11:53:31;6.10;99.90
7427;DHT22;3755;59.316;18.092;2024-03-02T11:55:59;6.10;99.90
7427;DHT22;3755;59.316;18.092;2024-03-02T11:58:27;6.00;99.90
7427;DHT22;3755;59.316;18.092;2024-03-02T12:00:56;6.00;99.90
7427;DHT22;3755;59.316;18.092;2024-03-02T12:03:25;6.00;99.90
7427;DHT22;3755;59.316;18.092;2024-03-02T12:05:53;5.90;99.90
7427;DHT22;3755;59.316;18.092;2024-03-02T12:08:21;5.90;99.90
7427;DHT22;3755;59.316;18.092;2024-03-02T12:10:59;5.80;99.90
7427;DHT22;3755;59.316;18.092;2024-03-02T12:13:27;5.90;99.90
7427;DHT22;3755;59.316;18.092;2024-03-02T12:15:56;5.90;99.90
7427;DHT22;3755;59.316;18.092;2024-03-02T12:18:23;5.90;99.90
7427;DHT22;3755;59.316;18.092;2024-03-02T12:20:51;5.80;99.90
7427;DHT22;3755;59.316;18.092;2024-03-02T12:23:23;5.80;99.90
7427;DHT22;3755;59.316;18.092;2024-03-02T12:25:50;5.70;99.90
7427;DHT22;3755;59.316;18.092;2024-03-02T12:28:17;5.70;99.90
7427;DHT22;3755;59.316;18.092;2024-03-02T12:30:46;5.70;99.90
7427;DHT22;3755;59.316;18.092;2024-03-02T12:33:15;5.70;99.90
7427;DHT22;3755;59.316;18.092;2024-03-02T12:35:43;5.70;99.90
7427;DHT22;3755;59.316;18.092;2024-03-02T12:38:10;5.70;99.90
7427;DHT22;3755;59.316;18.092;2024-03-02T12:40:37;5.70;99.90
7427;DHT22;3755;59.316;18.092;2024-03-02T12:43:05;5.80;99.90
7427;DHT22;3755;59.316;18.092;2024-03-02T12:45:32;5.80;99.90
7427;DHT22;3755;59.316;18.092;2024-03-02T12:48:01;5.80;99.90
7427;DHT22;3755;59.316;18.092;2024-03-02T12:50:33;5.80;99.90
7427;DHT22;3755;59.316;18.092;2024-03-02T12:53:00;5.80;99.90
7427;DHT22;3755;59.316;18.092;2024-03-02T12:55:27;5.80;99.90
7427;DHT22;3755;59.316;18.092;2024-03-02T12:57:54;5.80;99.90
7427;DHT22;3755;59.316;18.092;2024-03-02T13:00:22;5.80;99.90
7427;DHT22;3755;59.316;18.092;2024-03-02T13:02:49;5.80;99.90
7427;DHT22;3755;59.316;18.092;2024-03-02T13:05:17;5.80;99.90
7427;DHT22;3755;59.316;18.092;2024-03-02T13:07:47;5.80;99.90
7427;DHT22;3755;59.316;18.092;2024-03-02T13:10:14;5.70;99.90
7427;DHT22;3755;59.316;18.092;2024-03-02T13:12:41;5.70;99.90
7427;DHT22;3755;59.316;18.092;2024-03-02T13:15:09;5.70;99.90
7427;DHT22;3755;59.316;18.092;2024-03-02T13:17:36;5.70;99.90
7427;DHT22;3755;59.316;18.092;2024-03-02T13:20:03;5.70;99.90
7427;DHT22;3755;59.316;18.092;2024-03-02T13:22:33;5.70;99.90
7427;DHT22;3755;59.316;18.092;2024-03-02T13:25:02;5.70;99.90
7427;DHT22;3755;59.316;18.092;2024-03-02T13:27:30;5.70;99.90
7427;DHT22;3755;59.316;18.092;2024-03-02T13:29:58;5.80;99.90
7427;DHT22;3755;59.316;18.092;2024-03-02T13:32:25;5.70;99.90
7427;DHT22;3755;59.316;18.092;2024-03-02T13:34:52;5.80;99.90
7427;DHT22;3755;59.316;18.092;2024-03-02T13:37:20;5.80;99.90
7427;DHT22;3755;59.316;18.092;2024-03-02T13:39:48;5.80;99.90
7427;DHT22;3755;59.316;18.092;2024-03-02T13:42:19;5.70;99.90
7427;DHT22;3755;59.316;18.092;2024-03-02T13:44:46;5.50;99.90
7427;DHT22;3755;59.316;18.092;2024-03-02T13:47:15;5.50;99.90
7427;DHT22;3755;59.316;18.092;2024-03-02T13:49:42;5.50;99.90
7427;DHT22;3755;59.316;18.092;2024-03-02T13:52:12;5.40;99.90
7427;DHT22;3755;59.316;18.092;2024-03-02T13:54:40;5.40;99.90
7427;DHT22;3755;59.316;18.092;2024-03-02T13:57:08;5.50;99.90
7427;DHT22;3755;59.316;18.092;2024-03-02T13:59:37;5.40;99.90
7427;DHT22;3755;59.316;18.092;2024-03-02T14:02:05;5.40;99.90
7427;DHT22;3755;59.316;18.092;2024-03-02T14:04:32;5.40;99.90
7427;DHT22;3755;59.316;18.092;2024-03-02T14:07:00;5.50;99.90
7427;DHT22;3755;59.316;18.092;2024-03-02T14:09:29;5.50;99.90
7427;DHT22;3755;59.316;18.092;2024-03-02T14:11:56;5.50;99.90
7427;DHT22;3755;59.316;18.092;2024-03-02T14:14:26;5.50;99.90
7427;DHT22;3755;59.316;18.092;2024-03-02T14:16:54;5.50;99.90
7427;DHT22;3755;59.316;18.092;2024-03-02T14:19:30;5.40;99.90
7427;DHT22;3755;59.316;18.092;2024-03-02T14:21:57;5.40;99.90
7427;DHT22;3755;59.316;18.092;2024-03-02T14:24:26;5.40;99.90
7427;DHT22;3755;59.316;18.092;2024-03-02T14:26:55;5.50;99.90
7427;DHT22;3755;59.316;18.092;2024-03-02T14:29:23;5.40;99.90
7427;DHT22;3755;59.316;18.092;2024-03-02T14:31:50;5.50;99.90
7427;DHT22;3755;59.316;18.092;2024-03-02T14:34:18;5.50;99.90
7427;DHT22;3755;59.316;18.092;2024-03-02T14:36:45;5.50;99.90
7427;DHT22;3755;59.316;18.092;2024-03-02T14:39:12;5.50;99.90
7427;DHT22;3755;59.316;18.092;2024-03-02T14:41:40;5.50;99.90
7427;DHT22;3755;59.316;18.092;2024-03-02T14:44:07;5.40;99.90
7427;DHT22;3755;59.316;18.092;2024-03-02T14:46:34;5.40;99.90
7427;DHT22;3755;59.316;18.092;2024-03-02T14:49:01;5.50;99.90
7427;DHT22;3755;59.316;18.092;2024-03-02T14:51:30;5.50;99.90
7427;DHT22;3755;59.316;18.092;2024-03-02T14:53:57;5.50;99.90
7427;DHT22;3755;59.316;18.092;2024-03-02T14:56:24;5.50;99.90
7427;DHT22;3755;59.316;18.092;2024-03-02T14:58:52;5.50;99.90
7427;DHT22;3755;59.316;18.092;2024-03-02T15:01:19;5.50;99.90
7427;DHT22;3755;59.316;18.092;2024-03-02T15:03:48;5.50;99.90
7427;DHT22;3755;59.316;18.092;2024-03-02T15:06:15;5.50;99.90
7427;DHT22;3755;59.316;18.092;2024-03-02T15:08:44;5.40;99.90
7427;DHT22;3755;59.316;18.092;2024-03-02T15:11:12;5.40;99.90
7427;DHT22;3755;59.316;18.092;2024-03-02T15:13:39;5.40;99.90
7427;DHT22;3755;59.316;18.092;2024-03-02T15:16:06;5.40;99.90
7427;DHT22;3755;59.316;18.092;2024-03-02T15:18:34;5.30;99.90
7427;DHT22;3755;59.316;18.092;2024-03-02T15:21:01;5.30;99.90
7427;DHT22;3755;59.316;18.092;2024-03-02T15:23:28;5.30;99.90
7427;DHT22;3755;59.316;18.092;2024-03-02T15:25:57;5.30;99.90
7427;DHT22;3755;59.316;18.092;2024-03-02T15:28:24;5.30;99.90
7427;DHT22;3755;59.316;18.092;2024-03-02T15:30:51;5.30;99.90
7427;DHT22;3755;59.316;18.092;2024-03-02T15:33:18;5.30;99.90
7427;DHT22;3755;59.316;18.092;2024-03-02T15:35:46;5.20;99.90
7427;DHT22;3755;59.316;18.092;2024-03-02T15:38:13;4.80;99.90
7427;DHT22;3755;59.316;18.092;2024-03-02T15:40:42;5.20;99.90
7427;DHT22;3755;59.316;18.092;2024-03-02T15:43:10;5.20;99.90
7427;DHT22;3755;59.316;18.092;2024-03-02T15:45:37;5.20;99.90
7427;DHT22;3755;59.316;18.092;2024-03-02T15:48:05;5.30;99.90
7427;DHT22;3755;59.316;18.092;2024-03-02T15:50:32;5.30;99.90
7427;DHT22;3755;59.316;18.092;2024-03-02T15:53:01;5.20;99.90
7427;DHT22;3755;59.316;18.092;2024-03-02T15:55:32;5.10;99.90
7427;DHT22;3755;59.316;18.092;2024-03-02T15:58:00;5.10;99.90
7427;DHT22;3755;59.316;18.092;2024-03-02T16:00:31;5.10;99.90
7427;DHT22;3755;59.316;18.092;2024-03-02T16:02:58;5.10;99.90
7427;DHT22;3755;59.316;18.092;2024-03-02T16:05:25;5.00;99.90
7427;DHT22;3755;59.316;18.092;2024-03-02T16:07:52;5.00;99.90